Time;durP1;ratioP1;P1;durP2;ratioP2;P2;SDS_P1;SDS_P2;PMS_P1;PMS_P2;Temp;Humidity;BMP_temperature;BMP_pressure;BME280_temperature;BME280_humidity;BME280_pressure;Samples;Min_cycle;Max_cycle;Signal;HPM_P1;HPM_P2
2022/10/06 00:00:51;;;;;;;5.05;0.30;;;13.50;99.90;;;;;;5008531;28;20181;-79
2022/10/06 00:03:18;;;;;;;2.63;0.30;;;13.50;99.90;;;;;;4993364;28;20101;-75
2022/10/06 00:05:44;;;;;;;11.25;0.57;;;13.50;99.90;;;;;;4993225;28;20456;-75
2022/10/06 00:08:10;;;;;;;6.40;0.40;;;13.50;99.90;;;;;;5008335;28;20475;-76
2022/10/06 00:10:36;;;;;;;8.73;0.40;;;13.40;99.90;;;;;;4992222;28;20464;-77
2022/10/06 00:13:01;;;;;;;4.40;0.40;;;13.40;99.90;;;;;;4993041;28;20078;-76
2022/10/06 00:15:30;;;;;;;4.93;0.40;;;13.30;99.90;;;;;;4993151;28;20129;-75
2022/10/06 00:17:57;;;;;;;8.18;0.40;;;13.30;99.90;;;;;;4993136;28;20107;-73
2022/10/06 00:20:24;;;;;;;8.20;0.50;;;13.30;99.90;;;;;;5008524;28;20419;-74
2022/10/06 00:22:51;;;;;;;8.27;0.40;;;13.10;99.90;;;;;;4992694;28;20104;-76
2022/10/06 00:25:21;;;;;;;8.20;0.50;;;13.20;99.90;;;;;;4992107;28;20050;-75
2022/10/06 00:27:49;;;;;;;8.93;0.50;;;13.10;99.90;;;;;;4992957;28;20125;-73
2022/10/06 00:30:18;;;;;;;2.35;0.30;;;13.00;99.90;;;;;;4993555;28;20471;-74
2022/10/06 00:32:59;;;;;;;5.70;0.60;;;12.90;99.90;;;;;;4993308;28;20046;-75
2022/10/06 00:35:27;;;;;;;7.50;0.30;;;12.90;99.90;;;;;;4992679;28;20104;-74
2022/10/06 00:37:53;;;;;;;4.60;0.43;;;12.90;99.90;;;;;;4993210;28;20047;-75
2022/10/06 00:40:20;;;;;;;3.33;0.40;;;12.80;99.90;;;;;;4991798;28;20053;-75
2022/10/06 00:43:01;;;;;;;5.97;0.43;;;12.80;99.90;;;;;;4993413;28;20069;-73
2022/10/06 00:45:36;;;;;;;4.90;0.40;;;12.80;99.90;;;;;;4993696;28;20056;-74
2022/10/06 00:48:10;;;;;;;4.78;0.52;;;12.80;99.90;;;;;;4992958;28;20089;-75
2022/10/06 00:50:36;;;;;;;8.60;0.95;;;12.80;99.90;;;;;;4993889;28;20090;-75
2022/10/06 00:53:04;;;;;;;10.13;0.63;;;12.70;99.90;;;;;;4993164;28;20046;-76
2022/10/06 00:55:30;;;;;;;3.45;0.50;;;12.70;99.90;;;;;;4975962;28;20062;-76
2022/10/06 00:57:58;;;;;;;8.63;0.57;;;12.70;99.90;;;;;;4992267;28;20136;-78
2022/10/06 01:00:24;;;;;;;8.35;0.50;;;12.70;99.90;;;;;;4993086;28;20062;-75
2022/10/06 01:03:11;;;;;;;12.90;0.70;;;12.70;99.90;;;;;;4980080;28;20046;-76
2022/10/06 01:05:45;;;;;;;5.70;0.38;;;12.70;99.90;;;;;;4996238;28;20129;-75
2022/10/06 01:08:12;;;;;;;4.90;0.40;;;12.70;99.90;;;;;;4996569;28;20069;-77
2022/10/06 01:10:38;;;;;;;11.98;0.70;;;12.60;99.90;;;;;;4995429;28;20482;-76
2022/10/06 01:13:05;;;;;;;8.50;1.00;;;12.50;99.90;;;;;;4996435;28;20065;-76
2022/10/06 01:15:32;;;;;;;4.75;0.60;;;12.50;99.90;;;;;;4997501;28;20499;-75
2022/10/06 01:18:06;;;;;;;11.48;0.85;;;12.50;99.90;;;;;;4997503;28;20101;-74
2022/10/06 01:20:35;;;;;;;13.05;0.65;;;12.50;99.90;;;;;;4997456;28;20181;-76
2022/10/06 01:23:04;;;;;;;6.80;0.52;;;12.50;99.90;;;;;;4997102;28;20109;-78
2022/10/06 01:25:32;;;;;;;5.05;0.40;;;12.40;99.90;;;;;;4996135;28;20069;-75
2022/10/06 01:28:00;;;;;;;7.57;0.63;;;12.50;99.90;;;;;;5003159;28;20050;-77
2022/10/06 01:30:30;;;;;;;10.25;1.05;;;12.40;99.90;;;;;;5002710;28;20050;-75
2022/10/06 01:32:56;;;;;;;10.18;1.08;;;12.40;99.90;;;;;;4978505;28;20054;-76
2022/10/06 01:35:21;;;;;;;9.98;0.82;;;12.50;99.90;;;;;;5011997;28;20047;-76
2022/10/06 01:37:47;;;;;;;9.43;1.60;;;12.50;99.90;;;;;;4979531;28;20218;-76
2022/10/06 01:40:13;;;;;;;10.48;0.75;;;12.40;99.90;;;;;;5003151;28;20035;-75
2022/10/06 01:42:38;;;;;;;7.70;0.50;;;12.40;99.90;;;;;;5009288;28;20108;-76
2022/10/06 01:45:06;;;;;;;11.63;0.85;;;12.40;99.90;;;;;;5003469;28;20057;-78
2022/10/06 01:47:32;;;;;;;;;;;12.40;99.90;;;;;;5004980;28;20100;-75
2022/10/06 01:49:58;;;;;;;8.93;0.57;;;12.40;99.90;;;;;;5006574;28;19953;-76
2022/10/06 01:52:25;;;;;;;11.45;1.08;;;12.40;99.90;;;;;;5008922;28;20046;-77
2022/10/06 01:54:51;;;;;;;11.60;0.70;;;12.40;99.90;;;;;;5006228;28;20065;-77
2022/10/06 01:57:18;;;;;;;8.38;0.80;;;12.30;99.90;;;;;;5008794;28;20077;-77
2022/10/06 01:59:43;;;;;;;8.43;0.93;;;12.20;99.90;;;;;;5001162;28;20062;-75
2022/10/06 02:02:09;;;;;;;16.85;1.13;;;12.20;99.90;;;;;;4999114;28;20042;-76
2022/10/06 02:04:35;;;;;;;11.70;0.82;;;12.10;99.90;;;;;;4996283;28;20046;-76
2022/10/06 02:07:01;;;;;;;8.48;0.77;;;12.10;99.90;;;;;;5014464;28;20125;-76
2022/10/06 02:09:27;;;;;;;13.73;1.27;;;12.10;99.90;;;;;;5009259;28;20042;-76
2022/10/06 02:11:52;;;;;;;7.35;0.77;;;12.00;99.90;;;;;;4999642;28;20038;-80
2022/10/06 02:14:18;;;;;;;12.63;0.95;;;12.00;99.90;;;;;;5009531;28;20050;-74
2022/10/06 02:16:44;;;;;;;9.60;0.80;;;12.00;99.90;;;;;;4998271;28;20046;-75
2022/10/06 02:19:10;;;;;;;10.80;0.63;;;12.00;99.90;;;;;;4995365;28;20057;-76
2022/10/06 02:21:36;;;;;;;11.10;1.20;;;12.00;99.90;;;;;;4996040;28;20403;-75
2022/10/06 02:24:02;;;;;;;12.18;1.70;;;12.10;99.90;;;;;;4994280;28;20138;-76
2022/10/06 02:26:27;;;;;;;10.45;0.80;;;12.20;99.90;;;;;;4995388;28;20133;-77
2022/10/06 02:28:53;;;;;;;12.73;1.23;;;12.10;99.90;;;;;;4994872;28;20072;-76
2022/10/06 02:31:19;;;;;;;14.88;1.02;;;12.20;99.90;;;;;;4994717;28;20054;-77
2022/10/06 02:33:45;;;;;;;12.95;0.98;;;12.10;99.90;;;;;;4994613;28;20045;-74
2022/10/06 02:36:12;;;;;;;11.95;1.50;;;12.10;99.90;;;;;;4994935;28;20057;-76
2022/10/06 02:38:38;;;;;;;9.43;1.00;;;12.00;99.90;;;;;;4994706;28;20050;-78
2022/10/06 02:41:05;;;;;;;13.80;0.80;;;12.10;99.90;;;;;;4978518;28;20046;-75
2022/10/06 02:43:30;;;;;;;14.77;1.07;;;12.00;99.90;;;;;;4994158;28;20113;-74
2022/10/06 02:45:58;;;;;;;14.23;1.00;;;11.90;99.90;;;;;;4995217;28;20379;-75
2022/10/06 02:48:25;;;;;;;9.63;0.57;;;11.80;99.90;;;;;;4994724;28;20050;-75
2022/10/06 02:51:15;;;;;;;10.05;0.95;;;11.80;99.90;;;;;;4994410;28;20455;-74
2022/10/06 02:53:43;;;;;;;9.82;0.80;;;11.70;99.90;;;;;;4995063;28;20082;-74
2022/10/06 02:56:14;;;;;;;10.30;1.00;;;11.60;99.90;;;;;;4993884;28;20050;-74
2022/10/06 02:58:44;;;;;;;11.60;0.60;;;11.60;99.90;;;;;;5010158;28;20129;-78
2022/10/06 03:01:13;;;;;;;12.43;0.75;;;11.60;99.90;;;;;;5009751;28;20084;-75
2022/10/06 03:03:39;;;;;;;12.20;1.08;;;11.50;99.90;;;;;;5010491;28;20122;-77
2022/10/06 03:06:20;;;;;;;18.33;1.17;;;11.50;99.90;;;;;;4994079;28;20144;-75
2022/10/06 03:08:59;;;;;;;14.38;1.08;;;11.50;99.90;;;;;;4994564;28;20386;-76
2022/10/06 03:11:31;;;;;;;11.35;0.90;;;11.40;99.90;;;;;;4994006;28;20061;-77
2022/10/06 03:13:57;;;;;;;16.42;1.30;;;11.40;99.90;;;;;;4993413;28;20050;-77
2022/10/06 03:16:30;;;;;;;9.50;0.80;;;11.40;99.90;;;;;;4994969;28;20050;-75
2022/10/06 03:18:56;;;;;;;12.15;0.60;;;11.30;99.90;;;;;;4994083;28;20604;-74
2022/10/06 03:21:25;;;;;;;16.30;1.30;;;11.30;99.90;;;;;;5009778;28;20110;-78
2022/10/06 03:23:52;;;;;;;10.43;0.57;;;11.30;99.90;;;;;;4994226;28;20077;-75
2022/10/06 03:26:21;;;;;;;13.65;1.35;;;11.20;99.90;;;;;;4997144;28;20161;-77
2022/10/06 03:28:47;;;;;;;16.17;0.98;;;11.20;99.90;;;;;;5001849;28;20057;-73
2022/10/06 03:31:14;;;;;;;11.02;0.77;;;11.10;99.90;;;;;;4999798;28;20046;-74
2022/10/06 03:33:39;;;;;;;25.55;1.75;;;11.10;99.90;;;;;;4998206;28;20038;-76
2022/10/06 03:36:10;;;;;;;14.25;1.10;;;11.10;99.90;;;;;;4996264;28;20049;-75
2022/10/06 03:38:36;;;;;;;12.30;1.50;;;11.10;99.90;;;;;;4995214;28;20107;-75
2022/10/06 03:41:12;;;;;;;13.30;0.70;;;11.10;99.90;;;;;;4993622;28;20046;-75
2022/10/06 03:43:39;;;;;;;12.45;0.88;;;11.00;99.90;;;;;;4994770;28;20069;-74
2022/10/06 03:46:06;;;;;;;15.20;1.13;;;11.00;99.90;;;;;;4994884;28;20054;-74
2022/10/06 03:48:33;;;;;;;9.07;0.73;;;10.90;99.90;;;;;;4995914;28;20170;-75
2022/10/06 03:51:24;;;;;;;15.80;1.67;;;10.90;99.90;;;;;;4995871;28;20050;-75
2022/10/06 03:53:51;;;;;;;12.23;0.70;;;10.80;99.90;;;;;;4994205;28;20146;-76
2022/10/06 03:56:21;;;;;;;10.65;0.80;;;10.80;99.90;;;;;;4997530;28;20106;-75
2022/10/06 03:58:52;;;;;;;13.63;0.90;;;10.70;99.90;;;;;;4998694;28;20183;-74
2022/10/06 04:01:24;;;;;;;13.40;1.20;;;10.70;99.90;;;;;;4999671;28;20104;-76
2022/10/06 04:03:50;;;;;;;16.63;1.60;;;10.70;99.90;;;;;;5001310;28;20061;-75
2022/10/06 04:06:17;;;;;;;24.45;2.63;;;10.60;99.90;;;;;;5004203;28;20042;-75
2022/10/06 04:08:45;;;;;;;18.83;3.10;;;10.60;99.90;;;;;;5004081;28;20042;-78
2022/10/06 04:11:25;;;;;;;17.15;2.45;;;10.50;99.90;;;;;;5006306;28;20042;-76
2022/10/06 04:13:53;;;;;;;16.00;1.33;;;10.50;99.90;;;;;;5009328;28;20057;-76
2022/10/06 04:16:39;;;;;;;11.38;0.73;;;10.40;99.90;;;;;;5013933;28;20038;-78
2022/10/06 04:19:08;;;;;;;13.70;1.35;;;10.40;99.90;;;;;;5029535;28;20042;-73
2022/10/06 04:21:36;;;;;;;13.57;1.48;;;10.40;99.90;;;;;;5015376;28;20045;-77
2022/10/06 04:24:02;;;;;;;11.20;1.40;;;10.40;99.90;;;;;;5013603;28;20026;-74
2022/10/06 04:26:31;;;;;;;17.02;1.60;;;10.30;99.90;;;;;;5015239;28;20094;-80
2022/10/06 04:28:57;;;;;;;12.48;1.50;;;10.30;99.90;;;;;;5014283;28;20050;-76
2022/10/06 04:31:25;;;;;;;14.27;1.65;;;10.30;99.90;;;;;;5012878;28;20042;-76
2022/10/06 04:33:53;;;;;;;13.70;1.25;;;10.30;99.90;;;;;;5010648;28;20126;-74
2022/10/06 04:36:22;;;;;;;16.15;1.20;;;10.20;99.90;;;;;;5027304;28;20050;-74
2022/10/06 04:38:55;;;;;;;14.27;1.27;;;10.20;99.90;;;;;;5028957;28;20129;-73
2022/10/06 04:41:22;;;;;;;15.05;1.20;;;10.20;99.90;;;;;;5027734;28;20124;-77
2022/10/06 04:43:49;;;;;;;15.80;1.27;;;10.20;99.90;;;;;;5009930;28;20158;-74
2022/10/06 04:46:15;;;;;;;;;;;10.20;99.90;;;;;;5008362;28;20050;-75
2022/10/06 04:48:41;;;;;;;13.68;1.02;;;10.10;99.90;;;;;;5005640;28;19961;-73
2022/10/06 04:51:14;;;;;;;12.57;0.68;;;10.00;99.90;;;;;;5006212;28;20089;-75
2022/10/06 04:53:40;;;;;;;16.58;0.77;;;10.00;99.90;;;;;;5004909;28;20098;-78
2022/10/06 04:56:23;;;;;;;9.40;0.98;;;10.00;99.90;;;;;;5005468;28;20146;-76
2022/10/06 04:58:51;;;;;;;16.73;1.20;;;9.90;99.90;;;;;;5006612;28;20058;-73
2022/10/06 05:01:18;;;;;;;12.90;0.90;;;9.90;99.90;;;;;;5007918;28;20148;-78
2022/10/06 05:03:52;;;;;;;16.33;0.98;;;9.80;99.90;;;;;;5010832;28;20046;-78
2022/10/06 05:06:23;;;;;;;16.73;1.30;;;9.80;99.90;;;;;;5010937;28;20102;-79
2022/10/06 05:08:52;;;;;;;15.23;0.90;;;9.80;99.90;;;;;;5011708;28;20074;-76
2022/10/06 05:11:19;;;;;;;16.77;1.33;;;9.70;99.90;;;;;;5012454;28;20101;-76
2022/10/06 05:13:45;;;;;;;10.80;0.90;;;9.70;99.90;;;;;;5009165;28;20049;-74
2022/10/06 05:16:14;;;;;;;14.00;1.23;;;9.70;99.90;;;;;;5008469;28;20050;-77
2022/10/06 05:18:40;;;;;;;14.85;1.40;;;9.70;99.90;;;;;;5007838;28;20054;-79
2022/10/06 05:21:09;;;;;;;8.15;0.80;;;9.70;99.90;;;;;;5008086;28;20054;-76
2022/10/06 05:23:37;;;;;;;11.32;0.95;;;9.70;99.90;;;;;;5005966;28;20054;-78
2022/10/06 05:26:04;;;;;;;15.13;1.02;;;9.60;99.90;;;;;;5005710;28;20108;-76
2022/10/06 05:28:30;;;;;;;11.63;0.88;;;9.60;99.90;;;;;;5006813;28;20046;-79
2022/10/06 05:31:01;;;;;;;10.40;0.70;;;9.70;99.90;;;;;;5020591;28;20142;-75
2022/10/06 05:33:29;;;;;;;11.07;0.82;;;9.70;99.90;;;;;;5004794;28;20045;-75
2022/10/06 05:35:57;;;;;;;8.98;1.20;;;9.70;99.90;;;;;;4999833;28;20046;-78
2022/10/06 05:38:23;;;;;;;17.98;1.23;;;9.70;99.90;;;;;;4998803;28;20061;-73
2022/10/06 05:40:50;;;;;;;15.27;1.25;;;9.60;99.90;;;;;;4997887;28;20077;-76
2022/10/06 05:43:17;;;;;;;12.35;0.90;;;9.60;99.90;;;;;;5000778;28;20058;-72
2022/10/06 05:46:00;;;;;;;12.80;0.98;;;9.60;99.90;;;;;;4999711;28;20082;-75
2022/10/06 05:48:26;;;;;;;9.27;1.10;;;9.60;99.90;;;;;;4997708;28;20126;-74
2022/10/06 05:51:03;;;;;;;12.63;1.30;;;9.50;99.90;;;;;;4981839;28;20097;-77
2022/10/06 05:53:30;;;;;;;15.48;1.17;;;9.60;99.90;;;;;;4998957;28;20038;-76
2022/10/06 05:56:03;;;;;;;;;;;9.50;99.90;;;;;;4998503;28;20050;-73
2022/10/06 05:58:29;;;;;;;15.95;0.85;;;9.60;99.90;;;;;;5011979;28;19921;-75
2022/10/06 06:00:55;;;;;;;13.70;1.50;;;9.60;99.90;;;;;;4998171;28;20530;-74
2022/10/06 06:03:20;;;;;;;19.48;1.42;;;9.50;99.90;;;;;;5000884;28;20051;-74
2022/10/06 06:05:46;;;;;;;16.70;1.67;;;9.60;99.90;;;;;;4999184;28;20050;-75
2022/10/06 06:08:12;;;;;;;13.15;1.00;;;9.50;99.90;;;;;;4995937;28;20050;-76
2022/10/06 06:10:37;;;;;;;13.48;0.95;;;9.60;99.90;;;;;;4995986;28;20047;-80
2022/10/06 06:13:03;;;;;;;11.00;1.02;;;9.60;99.90;;;;;;4995042;28;20379;-75
2022/10/06 06:18:13;;;;;;;12.40;1.30;;;9.60;99.90;;;;;;4995925;28;20058;-75
2022/10/06 06:20:39;;;;;;;16.20;1.20;;;9.70;99.90;;;;;;4996205;28;20046;-78
2022/10/06 06:23:04;;;;;;;17.58;1.20;;;9.70;99.90;;;;;;4994705;28;20038;-74
2022/10/06 06:25:30;;;;;;;18.83;2.13;;;9.70;99.90;;;;;;4994791;28;20050;-75
2022/10/06 06:27:56;;;;;;;14.15;1.10;;;9.80;99.90;;;;;;4994832;28;20042;-74
2022/10/06 06:30:23;;;;;;;17.58;1.23;;;9.80;99.90;;;;;;4994884;28;20062;-74
2022/10/06 06:32:48;;;;;;;15.68;1.05;;;9.80;99.90;;;;;;4994278;28;20050;-74
2022/10/06 06:35:14;;;;;;;11.07;1.15;;;9.90;99.90;;;;;;4995615;28;20054;-75
2022/10/06 06:37:40;;;;;;;12.05;1.00;;;10.00;99.90;;;;;;4978346;28;20065;-83
2022/10/06 06:40:06;;;;;;;13.90;1.13;;;10.00;99.90;;;;;;4993792;28;20108;-74
2022/10/06 06:42:32;;;;;;;19.15;1.00;;;10.10;99.90;;;;;;4995028;28;20050;-75
2022/10/06 06:44:57;;;;;;;17.67;1.25;;;10.10;99.90;;;;;;4994658;28;20046;-73
2022/10/06 06:47:24;;;;;;;18.17;1.35;;;10.10;99.90;;;;;;5010455;28;20371;-75
2022/10/06 06:49:50;;;;;;;11.20;0.60;;;10.20;99.90;;;;;;4994378;28;20120;-74
2022/10/06 06:52:16;;;;;;;11.07;0.90;;;10.20;99.90;;;;;;4993522;28;20046;-73
2022/10/06 06:54:41;;;;;;;23.08;1.75;;;10.30;99.90;;;;;;4994869;28;20038;-78
2022/10/06 06:57:07;;;;;;;18.33;1.23;;;10.40;99.90;;;;;;4995700;28;20049;-74
2022/10/06 06:59:33;;;;;;;11.98;0.85;;;10.40;99.90;;;;;;4994242;28;20042;-75
2022/10/06 07:01:59;;;;;;;20.58;1.13;;;10.40;99.90;;;;;;4993475;28;20490;-76
2022/10/06 07:04:26;;;;;;;6.38;0.68;;;10.50;99.90;;;;;;4993701;28;20058;-75
2022/10/06 07:06:57;;;;;;;10.43;0.90;;;10.50;99.90;;;;;;4993608;28;20183;-74
2022/10/06 07:09:24;;;;;;;15.18;1.08;;;10.60;99.90;;;;;;4993502;28;20050;-74
2022/10/06 07:11:50;;;;;;;10.35;0.82;;;10.70;99.90;;;;;;4994930;28;20054;-75
2022/10/06 07:14:17;;;;;;;15.23;1.33;;;10.70;99.90;;;;;;5010519;28;20497;-74
2022/10/06 07:25:11;;;;;;;10.98;0.95;;;11.00;99.90;;;;;;4995086;28;20050;-74
2022/10/06 07:27:46;;;;;;;16.38;1.10;;;11.10;99.90;;;;;;4995649;28;20104;-74
2022/10/06 07:30:18;;;;;;;27.20;2.00;;;11.20;99.90;;;;;;4994246;28;20049;-74
2022/10/06 07:32:49;;;;;;;24.15;1.83;;;11.30;99.90;;;;;;4994535;28;20042;-74
2022/10/06 07:35:15;;;;;;;17.23;1.10;;;11.40;99.90;;;;;;4994602;28;20046;-73
2022/10/06 07:37:41;;;;;;;15.45;0.93;;;11.40;99.90;;;;;;4995158;28;20050;-74
2022/10/06 07:40:08;;;;;;;9.40;0.60;;;11.50;99.90;;;;;;4978344;28;20053;-77
2022/10/06 07:42:47;;;;;;;8.90;0.70;;;11.40;99.90;;;;;;4995996;28;20100;-74
2022/10/06 07:48:05;;;;;;;16.15;0.80;;;11.70;99.90;;;;;;4994392;28;20062;-76
2022/10/06 07:50:31;;;;;;;11.02;1.25;;;11.70;99.90;;;;;;4993904;28;20062;-75
2022/10/06 07:52:56;;;;;;;13.85;1.10;;;11.80;99.90;;;;;;4994387;28;20048;-73
2022/10/06 07:55:22;;;;;;;16.00;1.25;;;11.90;99.90;;;;;;4992746;28;20483;-75
2022/10/06 07:57:50;;;;;;;14.50;1.17;;;12.00;99.90;;;;;;4993949;28;20375;-76
2022/10/06 08:00:19;;;;;;;14.80;0.90;;;12.10;99.90;;;;;;4992247;28;20490;-74
2022/10/06 08:02:44;;;;;;;11.48;1.23;;;12.10;99.90;;;;;;4994067;28;20057;-75
2022/10/06 08:05:10;;;;;;;17.88;1.65;;;12.20;99.90;;;;;;4998913;28;20050;-75
2022/10/06 08:07:36;;;;;;;13.18;0.90;;;12.20;99.90;;;;;;5007238;28;20042;-77
2022/10/06 08:10:02;;;;;;;8.85;1.17;;;12.40;99.90;;;;;;5009621;28;20043;-76
2022/10/06 08:12:36;;;;;;;22.88;1.60;;;12.40;99.90;;;;;;4999408;28;20039;-74
2022/10/06 08:15:10;;;;;;;18.90;1.55;;;12.50;99.90;;;;;;4993876;28;20054;-76
2022/10/06 08:17:36;;;;;;;12.27;1.40;;;12.60;99.90;;;;;;4993738;28;20073;-77
2022/10/06 08:20:04;;;;;;;17.48;1.35;;;12.70;99.90;;;;;;4992126;28;20050;-76
2022/10/06 08:22:30;;;;;;;9.70;1.55;;;12.70;99.90;;;;;;5009438;28;20057;-76
2022/10/06 08:24:56;;;;;;;16.00;1.20;;;12.80;99.90;;;;;;4992726;28;20062;-76
2022/10/06 08:27:23;;;;;;;21.20;1.40;;;12.90;99.90;;;;;;4992246;28;20113;-76
2022/10/06 08:29:49;;;;;;;9.60;1.00;;;12.90;99.90;;;;;;4992236;28;20112;-74
2022/10/06 08:32:18;;;;;;;17.63;1.38;;;13.00;99.90;;;;;;4993627;28;20043;-76
2022/10/06 08:34:44;;;;;;;9.75;1.05;;;13.10;99.90;;;;;;5009360;28;20097;-74
2022/10/06 08:37:10;;;;;;;9.70;0.90;;;13.10;99.90;;;;;;5008446;28;20049;-74
2022/10/06 08:39:35;;;;;;;14.23;1.10;;;13.20;99.90;;;;;;4993758;28;20042;-76
2022/10/06 08:42:02;;;;;;;13.05;0.70;;;13.30;99.90;;;;;;4993350;28;20046;-74
2022/10/06 08:44:44;;;;;;;11.68;1.00;;;13.30;99.90;;;;;;4976544;28;20077;-74
2022/10/06 08:47:18;;;;;;;14.13;0.93;;;13.40;99.90;;;;;;4993184;28;20060;-76
2022/10/06 08:49:49;;;;;;;12.48;0.68;;;13.40;99.90;;;;;;4991755;28;20352;-79
2022/10/06 08:52:54;;;;;;;14.68;1.00;;;13.50;99.90;;;;;;4992834;28;20386;-74
2022/10/06 08:55:40;;;;;;;12.73;0.80;;;13.60;99.90;;;;;;4992993;28;20069;-76
2022/10/06 08:58:39;;;;;;;10.10;1.00;;;13.70;99.90;;;;;;4992585;28;20149;-75
2022/10/06 09:01:15;;;;;;;9.10;0.70;;;13.70;99.90;;;;;;4993422;28;20051;-76
2022/10/06 09:03:47;;;;;;;6.88;0.60;;;13.80;99.90;;;;;;4993509;28;20046;-75
2022/10/06 09:06:33;;;;;;;17.08;0.88;;;13.80;99.90;;;;;;4976122;28;20058;-73
2022/10/06 09:09:19;;;;;;;15.60;1.13;;;13.80;99.90;;;;;;4993007;28;20050;-74
2022/10/06 09:12:05;;;;;;;17.60;0.98;;;13.90;99.90;;;;;;4992960;28;20473;-76
2022/10/06 09:14:52;;;;;;;8.50;0.50;;;13.90;99.90;;;;;;5009189;28;20056;-76
2022/10/06 09:17:28;;;;;;;;;;;14.00;99.90;;;;;;4992611;28;20051;-74
2022/10/06 09:19:58;;;;;;;10.52;1.00;;;14.10;99.90;;;;;;4994031;28;19922;-74
2022/10/06 09:22:27;;;;;;;16.30;1.00;;;14.10;99.90;;;;;;5003252;28;20042;-76
2022/10/06 09:24:57;;;;;;;16.27;0.93;;;14.20;99.90;;;;;;4980563;28;20058;-75
2022/10/06 09:27:32;;;;;;;9.98;1.05;;;14.20;99.90;;;;;;4996283;28;20142;-75
2022/10/06 09:30:00;;;;;;;9.48;1.00;;;14.20;99.90;;;;;;4996557;28;20085;-74
2022/10/06 09:32:28;;;;;;;10.02;0.90;;;14.30;99.90;;;;;;5011534;28;20046;-75
2022/10/06 09:35:01;;;;;;;12.00;1.17;;;14.40;99.90;;;;;;4994997;28;20112;-75
2022/10/06 09:37:27;;;;;;;9.90;0.47;;;14.40;99.90;;;;;;4995521;28;20057;-75
2022/10/06 09:39:54;;;;;;;11.30;0.70;;;14.60;99.90;;;;;;4996625;28;20053;-76
2022/10/06 09:42:21;;;;;;;17.40;1.10;;;14.60;99.90;;;;;;4995900;28;20047;-77
2022/10/06 09:44:50;;;;;;;14.43;0.65;;;14.70;99.90;;;;;;4998020;28;20046;-75
2022/10/06 09:47:30;;;;;;;11.18;0.75;;;14.70;99.90;;;;;;4996489;28;20069;-74
2022/10/06 09:50:11;;;;;;;14.27;0.80;;;14.70;99.90;;;;;;5011522;28;20080;-74
2022/10/06 09:52:41;;;;;;;13.63;0.75;;;14.60;99.90;;;;;;4996117;28;20092;-79
2022/10/06 09:55:18;;;;;;;13.20;1.05;;;14.60;99.90;;;;;;4997082;28;20562;-74
2022/10/06 09:57:52;;;;;;;;;;;14.70;99.90;;;;;;4995486;28;20053;-76
2022/10/06 10:00:34;;;;;;;12.63;1.10;;;14.70;99.90;;;;;;4994698;28;19921;-76
2022/10/06 10:03:10;;;;;;;12.10;1.73;;;14.90;99.90;;;;;;4995915;28;20116;-77
2022/10/06 10:05:48;;;;;;;13.95;0.85;;;15.10;99.90;;;;;;4995855;28;20233;-77
2022/10/06 10:08:23;;;;;;;18.00;1.00;;;15.20;99.90;;;;;;4995549;28;20085;-76
2022/10/06 10:13:57;;;;;;;8.82;0.90;;;;;;;;;;4994956;28;20482;-75
2022/10/06 10:16:25;;;;;;;13.38;1.13;;;15.50;99.90;;;;;;4995380;28;20470;-76
2022/10/06 10:18:51;;;;;;;12.90;0.98;;;15.70;99.90;;;;;;4995191;28;20050;-76
2022/10/06 10:21:28;;;;;;;7.60;0.80;;;15.70;99.90;;;;;;4995659;28;20395;-74
2022/10/06 10:23:58;;;;;;;9.43;1.00;;;;;;;;;;4995564;28;20100;-76
2022/10/06 10:26:31;;;;;;;10.73;1.13;;;16.00;99.90;;;;;;4994467;28;20054;-75
2022/10/06 10:29:31;;;;;;;16.92;1.00;;;16.10;99.90;;;;;;5010617;28;20050;-73
2022/10/06 10:32:10;;;;;;;20.13;1.42;;;16.10;99.90;;;;;;4995204;28;20049;-76
2022/10/06 10:34:54;;;;;;;11.85;0.93;;;16.40;99.90;;;;;;4995307;28;20061;-75
2022/10/06 10:37:24;;;;;;;15.95;1.33;;;16.40;99.90;;;;;;4995338;28;20517;-76
2022/10/06 10:39:57;;;;;;;7.25;1.15;;;16.30;99.90;;;;;;4995344;28;20096;-76
2022/10/06 10:42:40;;;;;;;12.07;1.30;;;16.20;99.90;;;;;;5009954;28;20046;-74
2022/10/06 10:45:16;;;;;;;12.77;1.55;;;16.10;99.90;;;;;;4978648;28;20108;-75
2022/10/06 10:47:44;;;;;;;15.65;1.38;;;16.10;99.90;;;;;;4995443;28;20415;-76
2022/10/06 10:50:25;;;;;;;9.23;0.90;;;16.10;99.90;;;;;;4995201;28;20070;-74
2022/10/06 10:52:57;;;;;;;14.73;0.90;;;16.20;99.90;;;;;;4994622;28;20420;-80
2022/10/06 10:55:33;;;;;;;10.13;1.00;;;16.50;99.90;;;;;;4995320;28;20046;-73
2022/10/06 10:58:13;;;;;;;14.15;1.10;;;16.70;99.90;;;;;;4995348;28;20042;-76
2022/10/06 11:00:43;;;;;;;10.98;1.02;;;16.80;99.90;;;;;;4993859;28;20046;-74
2022/10/06 11:03:10;;;;;;;7.97;0.93;;;17.00;99.90;;;;;;4996787;28;20054;-76
2022/10/06 11:05:38;;;;;;;11.48;0.63;;;17.00;99.90;;;;;;4997521;28;20101;-75
2022/10/06 11:08:31;;;;;;;7.60;0.73;;;16.90;99.90;;;;;;5005639;28;20090;-75
2022/10/06 11:11:03;;;;;;;11.88;0.90;;;16.70;99.90;;;;;;5003904;28;20514;-74
2022/10/06 11:13:41;;;;;;;14.85;0.82;;;16.60;99.90;;;;;;4996497;28;20108;-74
2022/10/06 11:16:30;;;;;;;7.63;0.70;;;16.60;99.90;;;;;;4996391;28;20065;-75
2022/10/06 11:19:04;;;;;;;11.10;0.90;;;16.70;99.90;;;;;;4996219;28;20042;-76
2022/10/06 11:21:42;;;;;;;9.50;0.90;;;16.60;99.90;;;;;;4995299;28;20086;-76
2022/10/06 11:24:42;;;;;;;8.20;0.85;;;16.50;99.90;;;;;;5010082;28;20105;-76
2022/10/06 11:27:45;;;;;;;11.05;1.25;;;16.50;99.90;;;;;;4995221;28;20126;-76
2022/10/06 11:30:14;;;;;;;6.65;0.52;;;16.50;99.90;;;;;;4992422;28;20066;-74
2022/10/06 11:32:52;;;;;;;11.32;1.27;;;16.50;99.90;;;;;;4981767;28;20410;-77
2022/10/06 11:35:28;;;;;;;11.93;1.13;;;16.40;99.90;;;;;;4995069;28;20088;-77
2022/10/06 11:38:04;;;;;;;10.50;0.70;;;16.30;99.90;;;;;;5010113;28;20081;-74
2022/10/06 11:40:58;;;;;;;9.38;0.73;;;16.10;99.90;;;;;;4994469;28;20386;-75
2022/10/06 11:43:40;;;;;;;10.05;1.00;;;16.10;99.90;;;;;;4993644;28;20050;-76
2022/10/06 11:46:14;;;;;;;13.70;0.60;;;16.30;99.90;;;;;;4997368;28;20046;-76
2022/10/06 11:48:41;;;;;;;5.45;0.52;;;16.50;99.90;;;;;;5014406;28;20104;-74
2022/10/06 11:51:16;;;;;;;;;;;16.60;99.90;;;;;;4997587;28;20082;-76
2022/10/06 11:53:43;;;;;;;11.00;0.50;;;16.60;99.90;;;;;;4995838;28;19979;-76
2022/10/06 11:56:18;;;;;;;7.90;0.70;;;16.30;99.90;;;;;;4995031;28;20402;-73
2022/10/06 11:58:55;;;;;;;8.55;0.47;;;16.10;99.90;;;;;;4994027;28;20050;-76
2022/10/06 12:01:30;;;;;;;11.85;0.70;;;15.90;99.90;;;;;;4994913;28;20348;-75
2022/10/06 12:04:15;;;;;;;9.35;0.73;;;15.70;99.90;;;;;;4994952;28;20138;-74
2022/10/06 12:06:41;;;;;;;6.35;0.50;;;15.50;99.90;;;;;;5009496;28;20402;-74
2022/10/06 12:09:29;;;;;;;11.32;0.95;;;15.50;99.90;;;;;;4993140;28;20052;-75
2022/10/06 12:11:55;;;;;;;7.97;0.50;;;15.50;99.90;;;;;;4994323;28;20406;-75
2022/10/06 12:14:49;;;;;;;8.10;0.50;;;15.50;99.90;;;;;;4992983;28;20057;-74
2022/10/06 12:17:20;;;;;;;8.07;1.00;;;15.50;99.90;;;;;;4976990;28;20042;-75
2022/10/06 12:20:01;;;;;;;5.30;0.40;;;15.70;99.90;;;;;;4994882;28;20081;-74
2022/10/06 12:22:49;;;;;;;8.32;0.55;;;15.90;99.90;;;;;;4994041;28;20046;-74
2022/10/06 12:25:51;;;;;;;8.00;0.68;;;16.00;99.90;;;;;;4994258;28;20157;-74
2022/10/06 12:28:20;;;;;;;7.93;0.50;;;16.20;99.90;;;;;;4993026;28;20057;-75
2022/10/06 12:31:17;;;;;;;7.90;1.00;;;16.30;99.90;;;;;;4992522;28;20057;-75
2022/10/06 12:33:44;;;;;;;4.82;0.38;;;16.30;99.90;;;;;;4976684;28;20057;-73
2022/10/06 12:36:16;;;;;;;;;;;16.40;99.90;;;;;;4994015;28;20050;-73
2022/10/06 12:39:03;;;;;;;7.32;0.40;;;16.60;99.90;;;;;;4992670;28;19925;-77
2022/10/06 12:41:59;;;;;;;10.10;0.50;;;16.60;99.90;;;;;;5008781;28;20042;-76
2022/10/06 12:44:35;;;;;;;6.82;0.43;;;16.60;99.90;;;;;;4994166;28;20053;-75
2022/10/06 12:47:09;;;;;;;6.30;0.60;;;16.60;99.90;;;;;;4994092;28;20046;-75
2022/10/06 12:49:50;;;;;;;6.97;0.50;;;16.70;99.90;;;;;;4992547;28;20487;-73
2022/10/06 12:52:34;;;;;;;6.15;0.40;;;16.70;99.90;;;;;;4993727;28;20085;-75
2022/10/06 12:55:05;;;;;;;4.72;0.30;;;16.60;99.90;;;;;;4994430;28;20200;-76
2022/10/06 12:57:45;;;;;;;8.27;0.70;;;16.50;99.90;;;;;;4995441;28;20058;-73
2022/10/06 13:00:32;;;;;;;6.95;0.40;;;16.40;99.90;;;;;;4997231;28;20039;-75
2022/10/06 13:02:59;;;;;;;;;;;16.40;99.90;;;;;;4997384;28;20133;-76
2022/10/06 13:05:25;;;;;;;7.57;0.80;;;16.40;99.90;;;;;;4996044;28;19928;-75
2022/10/06 13:07:59;;;;;;;8.50;0.40;;;16.40;99.90;;;;;;4996238;28;20133;-74
2022/10/06 13:10:28;;;;;;;8.70;0.47;;;16.50;99.90;;;;;;4980762;28;20060;-73
2022/10/06 13:12:56;;;;;;;7.82;0.50;;;16.50;99.90;;;;;;4995557;28;20117;-75
2022/10/06 13:15:32;;;;;;;5.80;0.30;;;16.60;99.90;;;;;;4996314;28;20364;-74
2022/10/06 13:18:15;;;;;;;3.28;0.20;;;16.70;99.90;;;;;;4997535;28;20419;-77
2022/10/06 13:20:49;;;;;;;9.63;0.68;;;16.80;99.90;;;;;;4997515;28;20133;-74
2022/10/06 13:23:20;;;;;;;7.20;0.65;;;16.80;99.90;;;;;;4997684;28;20392;-74